Time;durP1;ratioP1;P1;durP2;ratioP2;P2;SDS_P1;SDS_P2;PMS_P1;PMS_P2;Temp;Humidity;BMP_temperature;BMP_pressure;BME280_temperature;BME280_humidity;BME280_pressure;Samples;Min_cycle;Max_cycle;Signal;HPM_P1;HPM_P2
2022/12/22 05:06:37;;;;;;;;;32.00;27.33;;;;;;;;6459765;39;9102;-65
2022/12/22 05:12:55;;;;;;;;;56.67;44.67;;;;;;;;6489895;39;8880;-65
2022/12/22 05:18:59;;;;;;;;;46.33;30.67;;;;;;;;6489495;46;8922;-66
2022/12/22 05:25:02;;;;;;;;;55.00;42.67;;;;;;;;6490321;46;8963;-65
2022/12/22 05:31:06;;;;;;;;;47.00;42.67;;;;;;;;6489105;39;9664;-65
2022/12/22 05:37:09;;;;;;;;;43.67;39.33;;;;;;;;6488176;39;8952;-64
2022/12/22 05:43:12;;;;;;;;;54.67;45.00;;;;;;;;6488998;46;9056;-65
2022/12/22 05:49:14;;;;;;;;;45.00;39.00;;;;;;;;6489643;31;9018;-65
2022/12/22 05:55:18;;;;;;;;;46.00;37.33;;;;;;;;6488368;39;8908;-65
2022/12/22 06:01:21;;;;;;;;;43.00;36.67;;;;;;;;6488056;39;8874;-66
2022/12/22 06:07:23;;;;;;;;;39.67;36.67;;;;;;;;6490116;39;9638;-65
2022/12/22 06:13:26;;;;;;;;;41.33;37.67;;;;;;;;6488779;39;8972;-65
2022/12/22 06:19:29;;;;;;;;;49.00;42.33;;;;;;;;6487806;39;8938;-64
2022/12/22 06:25:31;;;;;;;;;46.33;38.67;;;;;;;;6489589;39;8974;-65
2022/12/22 06:31:34;;;;;;;;;48.00;43.00;;;;;;;;6489393;39;8919;-64
2022/12/22 06:37:37;;;;;;;;;52.00;42.33;;;;;;;;6488277;47;9038;-65
2022/12/22 06:43:40;;;;;;;;;57.33;43.33;;;;;;;;6488709;46;8944;-65
2022/12/22 06:49:43;;;;;;;;;60.67;48.00;;;;;;;;6489242;31;8912;-65
2022/12/22 06:55:45;;;;;;;;;69.00;55.00;;;;;;;;6491808;31;9462;-67
2022/12/22 07:01:48;;;;;;;;;35.00;22.67;;;;;;;;6490365;46;8952;-64
2022/12/22 07:07:51;;;;;;;;;56.33;48.00;;;;;;;;6490464;39;8886;-64
2022/12/22 07:13:54;;;;;;;;;60.33;48.33;;;;;;;;6490229;39;8933;-65
2022/12/22 07:19:59;;;;;;;;;43.67;37.33;;;;;;;;6488761;39;9064;-66
2022/12/22 07:26:02;;;;;;;;;46.67;42.00;;;;;;;;6490166;46;8922;-65
2022/12/22 07:32:04;;;;;;;;;56.33;36.67;;;;;;;;6488506;46;8921;-67
2022/12/22 07:38:07;;;;;;;;;45.33;38.00;;;;;;;;6490490;31;9142;-66
2022/12/22 07:44:09;;;;;;;;;59.00;45.00;;;;;;;;6489365;39;9016;-64
2022/12/22 07:50:24;;;;;;;;;66.67;50.33;;;;;;;;6489125;39;9627;-65
2022/12/22 07:56:27;;;;;;;;;71.67;54.67;;;;;;;;6490965;31;9077;-64
2022/12/22 08:02:30;;;;;;;;;58.67;39.33;;;;;;;;6488146;46;9081;-66
2022/12/22 08:08:39;;;;;;;;;44.67;35.33;;;;;;;;6488834;39;9775;-64
2022/12/22 08:14:44;;;;;;;;;48.67;42.33;;;;;;;;6487807;46;8882;-64
2022/12/22 08:20:51;;;;;;;;;59.67;45.33;;;;;;;;6487800;39;8945;-64
2022/12/22 08:26:58;;;;;;;;;57.33;45.00;;;;;;;;6488568;39;8906;-65
2022/12/22 08:33:00;;;;;;;;;57.33;45.00;;;;;;;;6486982;39;8930;-64
2022/12/22 08:39:04;;;;;;;;;57.33;46.67;;;;;;;;6487564;39;8937;-64
2022/12/22 08:45:08;;;;;;;;;48.67;39.67;;;;;;;;6487602;39;8953;-65
2022/12/22 08:51:11;;;;;;;;;44.33;42.33;;;;;;;;6487458;39;8913;-64
2022/12/22 08:57:13;;;;;;;;;44.00;40.00;;;;;;;;6486951;31;9024;-63
2022/12/22 09:03:15;;;;;;;;;54.33;47.33;;;;;;;;6487067;39;9028;-63
2022/12/22 09:09:18;;;;;;;;;49.00;43.00;;;;;;;;6485040;46;8961;-63
2022/12/22 09:15:21;;;;;;;;;48.00;42.67;;;;;;;;6484296;31;8922;-64
2022/12/22 09:21:25;;;;;;;;;50.67;43.00;;;;;;;;6484014;39;8960;-66
2022/12/22 09:27:29;;;;;;;;;65.67;46.00;;;;;;;;6485276;39;8936;-63
2022/12/22 09:33:35;;;;;;;;;65.33;48.00;;;;;;;;6485612;31;8930;-64
2022/12/22 09:39:37;;;;;;;;;62.33;49.67;;;;;;;;6487406;31;8905;-62
2022/12/22 09:45:39;;;;;;;;;59.33;45.00;;;;;;;;6487084;31;8969;-63
2022/12/22 09:51:46;;;;;;;;;63.67;51.67;;;;;;;;6485366;39;9113;-64
2022/12/22 09:57:50;;;;;;;;;62.67;49.67;;;;;;;;6485599;39;8965;-63
2022/12/22 10:04:23;;;;;;;;;54.00;46.75;;;;;;;;6485279;31;9056;-65
2022/12/22 10:10:28;;;;;;;;;48.33;43.67;;;;;;;;6485730;31;8932;-65
2022/12/22 10:16:31;;;;;;;;;55.67;38.00;;;;;;;;6485907;39;8873;-65
2022/12/22 10:23:06;;;;;;;;;57.33;47.33;;;;;;;;6484848;47;9045;-64
2022/12/22 10:29:13;;;;;;;;;63.00;45.33;;;;;;;;6483928;39;8938;-64
2022/12/22 10:35:15;;;;;;;;;73.33;55.33;;;;;;;;6485423;39;9628;-65
2022/12/22 10:41:21;;;;;;;;;67.00;54.33;;;;;;;;6485408;31;8945;-64
2022/12/22 10:47:23;;;;;;;;;73.67;57.67;;;;;;;;6482221;47;8962;-66
2022/12/22 10:53:41;;;;;;;;;78.33;57.67;;;;;;;;6485460;31;8979;-65
2022/12/22 10:59:54;;;;;;;;;77.67;59.33;;;;;;;;6482181;31;9064;-65
2022/12/22 11:05:58;;;;;;;;;78.33;64.33;;;;;;;;6486391;31;9036;-66
2022/12/22 11:12:25;;;;;;;;;76.00;57.75;;;;;;;;6485347;39;8975;-66
2022/12/22 11:18:55;;;;;;;;;69.75;53.50;;;;;;;;6485553;47;8898;-65
2022/12/22 11:25:35;;;;;;;;;77.33;57.33;;;;;;;;6484436;31;8970;-66
2022/12/22 11:31:49;;;;;;;;;69.67;55.67;;;;;;;;6483831;39;9525;-65
2022/12/22 11:38:13;;;;;;;;;74.33;55.67;;;;;;;;6487389;31;9674;-63
2022/12/22 11:44:35;;;;;;;;;74.00;53.00;;;;;;;;6487958;46;8970;-65
2022/12/22 11:50:47;;;;;;;;;79.67;60.00;;;;;;;;6486763;31;8891;-65
2022/12/22 11:57:28;;;;;;;;;79.33;59.00;;;;;;;;4902291;36;10001669;-64
2022/12/22 12:03:57;;;;;;;;;74.33;57.00;;;;;;;;6485628;31;9062;-64
2022/12/22 12:10:22;;;;;;;;;75.00;58.67;;;;;;;;6485605;39;8902;-64
2022/12/22 12:16:33;;;;;;;;;57.33;48.33;;;;;;;;6487072;31;8961;-66
2022/12/22 12:22:46;;;;;;;;;74.33;54.67;;;;;;;;6487954;39;8937;-64
2022/12/22 12:29:01;;;;;;;;;76.00;58.67;;;;;;;;6487642;39;9545;-63
2022/12/22 12:35:27;;;;;;;;;73.67;56.33;;;;;;;;6486509;31;8937;-64
2022/12/22 12:41:52;;;;;;;;;79.00;62.33;;;;;;;;6487203;31;8926;-65
2022/12/22 12:48:23;;;;;;;;;78.00;60.33;;;;;;;;6487345;31;8892;-65
2022/12/22 12:54:25;;;;;;;;;69.00;53.33;;;;;;;;6487898;39;8883;-64
2022/12/22 13:00:30;;;;;;;;;69.67;57.00;;;;;;;;6487055;31;8906;-64
2022/12/22 13:06:47;;;;;;;;;74.33;57.33;;;;;;;;6486453;36;8860;-65
2022/12/22 13:12:53;;;;;;;;;63.00;45.00;;;;;;;;6486476;46;8948;-64
2022/12/22 13:18:58;;;;;;;;;63.33;49.00;;;;;;;;6486955;31;9009;-63
2022/12/22 13:25:02;;;;;;;;;73.67;60.33;;;;;;;;6485917;39;8924;-65
2022/12/22 13:31:12;;;;;;;;;65.33;49.67;;;;;;;;6485815;31;8923;-63
2022/12/22 13:37:21;;;;;;;;;71.67;57.00;;;;;;;;6486109;39;9021;-64
2022/12/22 13:43:25;;;;;;;;;71.67;54.00;;;;;;;;6484286;39;8996;-64
2022/12/22 13:49:29;;;;;;;;;70.00;55.00;;;;;;;;6483945;39;8936;-66
2022/12/22 13:55:56;;;;;;;;;67.75;51.25;;;;;;;;6121973;36;10000233;-65
2022/12/22 14:02:10;;;;;;;;;73.00;56.33;;;;;;;;6478737;39;9010;-65
2022/12/22 14:08:12;;;;;;;;;66.00;50.33;;;;;;;;6480077;46;9008;-63
2022/12/22 14:14:19;;;;;;;;;68.67;55.33;;;;;;;;6481146;39;8958;-64
2022/12/22 14:20:28;;;;;;;;;82.33;60.00;;;;;;;;6482323;39;9340;-64
2022/12/22 14:26:30;;;;;;;;;83.33;64.00;;;;;;;;6482413;31;8985;-64
2022/12/22 14:32:45;;;;;;;;;77.67;63.00;;;;;;;;5757872;36;10002613;-64
2022/12/22 14:38:57;;;;;;;;;78.33;62.33;;;;;;;;6484456;39;8936;-64
2022/12/22 14:45:14;;;;;;;;;71.00;57.33;;;;;;;;6485130;39;9137;-63
2022/12/22 14:51:18;;;;;;;;;84.67;63.00;;;;;;;;6486783;39;8946;-63
2022/12/22 14:57:48;;;;;;;;;78.33;64.00;;;;;;;;6485916;39;8908;-65
2022/12/22 15:03:59;;;;;;;;;75.33;58.67;;;;;;;;6485757;39;8976;-66
2022/12/22 15:10:03;;;;;;;;;76.67;61.67;;;;;;;;6486773;39;8915;-64
2022/12/22 15:16:20;;;;;;;;;81.67;63.67;;;;;;;;6488690;31;8915;-65
2022/12/22 15:22:22;;;;;;;;;72.33;57.33;;;;;;;;6488977;39;8967;-65
2022/12/22 15:28:28;;;;;;;;;78.67;60.33;;;;;;;;6487835;39;8933;-64
2022/12/22 15:34:31;;;;;;;;;66.67;48.00;;;;;;;;6487102;46;8924;-65
2022/12/22 15:40:33;;;;;;;;;70.33;57.33;;;;;;;;6486918;46;9123;-65
2022/12/22 15:46:37;;;;;;;;;72.67;57.33;;;;;;;;6488429;31;8933;-65
2022/12/22 15:52:50;;;;;;;;;72.33;54.00;;;;;;;;6487933;31;8942;-64
2022/12/22 15:58:52;;;;;;;;;69.00;56.33;;;;;;;;6487448;31;9616;-65
2022/12/22 16:04:55;;;;;;;;;82.67;57.67;;;;;;;;6488583;39;8935;-64
2022/12/22 16:10:58;;;;;;;;;78.00;60.00;;;;;;;;6487332;46;8920;-65
2022/12/22 16:17:01;;;;;;;;;74.33;58.00;;;;;;;;6487552;46;8859;-66
2022/12/22 16:23:06;;;;;;;;;78.00;60.67;;;;;;;;6487743;39;9564;-65
2022/12/22 16:29:14;;;;;;;;;75.33;54.00;;;;;;;;6487157;39;9491;-65
2022/12/22 16:35:20;;;;;;;;;82.67;62.67;;;;;;;;6487842;39;9967;-64
2022/12/22 16:41:24;;;;;;;;;77.33;61.33;;;;;;;;6487501;31;8838;-66
2022/12/22 16:47:32;;;;;;;;;82.67;64.00;;;;;;;;6487729;39;8854;-66
2022/12/22 16:53:34;;;;;;;;;70.00;54.00;;;;;;;;6488434;31;8883;-66
2022/12/22 16:59:36;;;;;;;;;75.00;59.33;;;;;;;;6487378;31;8909;-66
2022/12/22 17:05:45;;;;;;;;;75.33;60.00;;;;;;;;6486926;46;8942;-65
2022/12/22 17:11:49;;;;;;;;;80.67;62.33;;;;;;;;6487300;39;8868;-64
2022/12/22 17:17:52;;;;;;;;;79.00;59.33;;;;;;;;6487341;46;8925;-65
2022/12/22 17:24:02;;;;;;;;;84.33;62.33;;;;;;;;6487545;39;9018;-65
2022/12/22 17:30:13;;;;;;;;;81.67;63.33;;;;;;;;6486460;31;8875;-64
2022/12/22 17:36:22;;;;;;;;;82.33;61.00;;;;;;;;6488038;39;8872;-65
2022/12/22 17:42:24;;;;;;;;;82.67;63.67;;;;;;;;6487743;31;8918;-64
2022/12/22 17:48:26;;;;;;;;;75.00;58.00;;;;;;;;6487323;31;8922;-65
2022/12/22 17:54:28;;;;;;;;;80.67;64.00;;;;;;;;6487506;39;9494;-65
2022/12/22 18:00:31;;;;;;;;;80.67;63.67;;;;;;;;6487696;31;8967;-65
2022/12/22 18:06:37;;;;;;;;;76.00;58.33;;;;;;;;6487614;39;8954;-65
2022/12/22 18:12:39;;;;;;;;;75.00;59.33;;;;;;;;6486765;39;8871;-66
2022/12/22 18:18:42;;;;;;;;;89.00;67.67;;;;;;;;6486413;39;9086;-64
2022/12/22 18:24:46;;;;;;;;;87.33;64.33;;;;;;;;6487282;31;8884;-64
